UKBBDRZR

Guest
Details From UKBB - Boryspil
To DRZR - Zinder
Flight Number -
Tags Decoded
Created
Modified
Stats Distance 2,481 nm / 4,596 km
Max Altitude 0 ft / 0 m
Waypoints 2
Social Downloads 0
Likes 0
Share VATSIM

Download

Looking for another format? Having issues loading an existing format? Contact us
Advertisement - Login to hide

Notes

Decoded

Route

KUROS IN

ID Type Via Altitude Latitude Longitude Leg Dist Tot Dist Heading (true) Name
O KUROS FIX - 0 ft / 0 m 50.74813˚ 31.79489˚ - 0 nm - -
O IN NDB - 0 ft / 0 m 13.78950˚ 8.99783˚ 2481 nm 2481 nm 215° / 202° ZINDER NDB

Altitude Profile

Advertisement - Login to hide

Weather


0- 5 10 15 20 25 30 35+ Temperature / ° C

Clouds and Precipitation
Forecast for 2017-12-18 00:00 UTC. Updated 2 hours ago

Ground ~20,000 ft ~40,000 ft Winds

UKBB

Details ICAO UKBB (KBP)
Name Boryspil
Region Ukraine
Timezone Europe/Kiev (UTC+2.0)
Stats Elevation 421 ft / 128 m (AMSL)
Location 50.339472° 30.892903°
Runways 2
Magnetic Variation 7.670° E

METAR

UKBB 172100Z 36006MPS 9999 OVC010 00/M01 Q1017 R36R/190060 R36L/CLRD// NOSIG

Decode

TAF

TAF AMD UKBB 171310Z 1713/1812 35006G12MPS 9999 OVC007 BECMG 1718/1720 5000 -SN OVC005 TEMPO 1720/1812 01010G16MPS 1000 SHSN BKN004 BKN020CB TX01/1713Z TNM03/1806Z

Decode

Departure Runways

ID Width Length Bearing (true) Bearing (mag) Surface Threshold Offset Overrun Length
18L 197 ft / 60 m 13,152 ft / 4,009 m 182.72° 175.05° Concrete 0 ft / 0 m 295 ft / 90 m
18R 207 ft / 63 m 11,470 ft / 3,496 m 182.62° 174.95° Concrete 0 ft / 0 m 164 ft / 50 m
36L 207 ft / 63 m 11,470 ft / 3,496 m 2.62° 354.95° Concrete 0 ft / 0 m 164 ft / 50 m
36R 197 ft / 60 m 13,152 ft / 4,009 m 2.72° 355.05° Concrete 0 ft / 0 m 295 ft / 90 m

DRZR

Details ICAO DRZR (ZND)
Name ZINDER
Region Niger
Timezone Africa/Niamey (UTC+1.0)
Stats Elevation 1,516 ft / 462 m (AMSL)
Location 13.778996° 8.983761°
Runways 1
Magnetic Variation 0.227° E

METAR

Not found

TAF

TAF DRZR 171700Z 1718/1818 02005KT 8000 NSC BECMG 1806/1808 08010KT

Decode

Destination Runways

ID Width Length Bearing (true) Bearing (mag) Surface Threshold Offset Overrun Length
05 98 ft / 30 m 6,013 ft / 1,833 m 53.09° 52.86° Asphalt 0 ft / 0 m 0 ft / 0 m
23 98 ft / 30 m 6,013 ft / 1,833 m 233.09° 232.86° Asphalt 0 ft / 0 m 0 ft / 0 m